Lome, Togo
Current Conditions -  °F | °C
As of 4:00 PM on Friday 24 Oct 2014 (Local Time) from DXXX Reporting Station
Few Clouds Few Clouds  
Wind Chill: 84°   Ceiling: Unl
Heat Index: 92°   Visibility: 6mi
Dew Point: 75°   Wind: 16mph
Humidity: 74%   Direction: 210°SSW
Pressure: 29.83"   Gusts: NA
Location:  6.17°N, 1.35°E
Report Text: DXXX 241600Z 21014KT 9999 FEW015 29/24 Q1010 NOSIG
Loading
Personal Weather Stations






























Interactive Weather Map
Tropical Storm Tracking
New forecast layout! Learn more

10-Day Weather Forecast

Advertisements
Track Severe Weather on mobile